createdAt,value
2017-06-05T00:00:34.380Z,88.5
2017-06-05T00:01:42.208Z,88.4
2017-06-05T00:02:49.685Z,89.3
2017-06-05T00:03:57.193Z,88.9
2017-06-05T00:05:04.682Z,89.2
2017-06-05T00:06:11.826Z,89.1
2017-06-05T00:07:19.668Z,88.4
2017-06-05T00:08:27.559Z,88.7
2017-06-05T00:09:34.711Z,88.5
2017-06-05T00:10:41.873Z,89.3
2017-06-05T00:11:49.354Z,88.7
2017-06-05T00:12:57.187Z,89.1
2017-06-05T00:14:04.663Z,89.1
2017-06-05T00:15:12.146Z,88.5
2017-06-05T00:16:19.630Z,89.3
2017-06-05T00:17:27.111Z,89.1
2017-06-05T00:18:34.958Z,88.8
2017-06-05T00:19:42.442Z,90.1
2017-06-05T00:20:49.940Z,90.1
2017-06-05T00:21:57.417Z,90.2
2017-06-05T00:23:04.903Z,90
2017-06-05T00:24:12.738Z,89.9
2017-06-05T00:25:20.221Z,90.2
2017-06-05T00:26:27.703Z,90.3
2017-06-05T00:27:35.184Z,90.3
2017-06-05T00:28:42.336Z,89.5
2017-06-05T00:29:49.848Z,89.9
2017-06-05T00:30:57.332Z,90.2
2017-06-05T00:32:04.809Z,90.1
2017-06-05T00:33:11.959Z,90.2
2017-06-05T00:34:19.466Z,90.3
2017-06-05T00:35:27.303Z,90.3
2017-06-05T00:36:34.780Z,90.3
2017-06-05T00:37:42.274Z,90.5
2017-06-05T00:38:49.758Z,89.8
2017-06-05T00:39:57.473Z,90.2
2017-06-05T00:41:05.252Z,90.3
2017-06-05T00:42:12.765Z,90.6
2017-06-05T00:43:20.275Z,90.2
2017-06-05T00:44:27.762Z,90.7
2017-06-05T00:45:35.251Z,89.7
2017-06-05T00:46:43.032Z,90.6
2017-06-05T00:47:50.516Z,90.2
2017-06-05T00:48:57.999Z,90.2
2017-06-05T00:50:05.479Z,90.4
2017-06-05T00:51:12.964Z,89.9
2017-06-05T00:52:20.413Z,90.5
2017-06-05T00:53:27.887Z,90.2
2017-06-05T00:54:35.040Z,90.1
2017-06-05T00:55:42.205Z,90.1
2017-06-05T00:56:49.693Z,90.2
2017-06-05T00:57:57.482Z,90.3
2017-06-05T00:59:04.973Z,90.5
2017-06-05T01:00:12.666Z,90.3
2017-06-05T01:01:19.823Z,90.3
2017-06-05T01:02:27.307Z,89.9
2017-06-05T01:03:35.148Z,90.4
2017-06-05T01:04:42.657Z,89
2017-06-05T01:05:50.137Z,90.5
2017-06-05T01:06:57.295Z,90.2
2017-06-05T01:08:04.776Z,90.4
2017-06-05T01:09:12.284Z,90.2
2017-06-05T01:10:19.766Z,90.3
2017-06-05T01:11:27.260Z,90.3
2017-06-05T01:12:34.742Z,90.6
2017-06-05T01:13:42.244Z,90.5
2017-06-05T01:14:50.103Z,90.2
2017-06-05T01:15:57.249Z,90.4
2017-06-05T01:17:04.727Z,90.5
2017-06-05T01:18:12.214Z,90.2
2017-06-05T01:19:19.702Z,90.7
2017-06-05T01:20:27.220Z,90.8
2017-06-05T01:21:34.703Z,90.5
2017-06-05T01:22:42.189Z,91
2017-06-05T01:23:49.675Z,90.9
2017-06-05T01:24:57.156Z,90.7
2017-06-05T01:26:04.988Z,91.3
2017-06-05T01:27:12.463Z,90.6
2017-06-05T01:28:19.626Z,90.5
2017-06-05T01:29:27.111Z,90.5
2017-06-05T01:30:34.593Z,91.7
2017-06-05T01:31:42.431Z,91.6
2017-06-05T01:32:49.920Z,91
2017-06-05T01:33:57.403Z,91
2017-06-05T01:35:04.887Z,91.1
2017-06-05T01:36:12.371Z,90.8
2017-06-05T01:37:20.203Z,91.1
2017-06-05T01:38:27.352Z,90.9
2017-06-05T01:39:34.504Z,91.2
2017-06-05T01:40:41.332Z,92.2
2017-06-05T01:41:48.809Z,92.3
2017-06-05T01:42:56.309Z,91.1
2017-06-05T01:44:03.469Z,90.6
2017-06-05T01:45:10.947Z,90.9
2017-06-05T01:46:18.435Z,91.3
2017-06-05T01:47:25.923Z,91.4
2017-06-05T01:48:33.766Z,91.8
2017-06-05T01:51:03.316Z,91.6
2017-06-05T01:52:10.804Z,91.4
2017-06-05T01:53:18.291Z,90.9
2017-06-05T01:54:26.124Z,91.2
2017-06-05T01:55:33.286Z,91.3
2017-06-05T01:56:40.300Z,91.7
2017-06-05T01:57:47.785Z,91.8
2017-06-05T01:58:55.271Z,91.6
2017-06-05T02:00:03.107Z,91.4
2017-06-05T02:01:10.594Z,91.3
2017-06-05T02:02:17.787Z,91.8
2017-06-05T02:03:24.954Z,91.7
2017-06-05T02:04:32.433Z,91.8
2017-06-05T02:05:40.266Z,92
2017-06-05T02:06:47.749Z,92.1
2017-06-05T02:07:54.909Z,91.7
2017-06-05T02:09:02.396Z,92.1
2017-06-05T02:10:09.882Z,92.1
2017-06-05T02:11:17.724Z,91.4
2017-06-05T02:12:25.210Z,91.8
2017-06-05T02:13:32.695Z,91.4
2017-06-05T02:14:40.182Z,91.8
2017-06-05T02:15:47.655Z,91.6
2017-06-05T02:16:55.109Z,91.6
2017-06-05T02:18:02.596Z,91.2
2017-06-05T02:19:10.083Z,91.7
2017-06-05T02:20:17.560Z,91.7
2017-06-05T02:21:25.043Z,91.3
2017-06-05T02:22:32.872Z,90.5
2017-06-05T02:23:40.352Z,90.8
2017-06-05T02:24:47.512Z,91.5
2017-06-05T02:25:54.667Z,91.9
2017-06-05T02:27:02.170Z,90.8
2017-06-05T02:28:10.008Z,91.1
2017-06-05T02:29:17.491Z,90.6
2017-06-05T02:30:24.973Z,90.7
2017-06-05T02:31:32.458Z,91.4
2017-06-05T02:32:40.155Z,91.5
2017-06-05T02:33:47.982Z,91.7
2017-06-05T02:34:55.143Z,92.2
2017-06-05T02:36:02.627Z,91.7
2017-06-05T02:37:09.790Z,92.1
2017-06-05T02:38:16.943Z,91.8
2017-06-05T02:39:24.776Z,91.8
2017-06-05T02:40:31.935Z,92.1
2017-06-05T02:41:39.424Z,92
2017-06-05T02:42:46.906Z,92
2017-06-05T02:43:54.064Z,92.1
2017-06-05T02:45:01.903Z,91.9
2017-06-05T02:46:09.394Z,92.2
2017-06-05T02:47:16.873Z,92.4
2017-06-05T02:48:24.353Z,92.4
2017-06-05T02:49:32.066Z,92.4
2017-06-05T02:50:39.510Z,92.4
2017-06-05T02:51:46.997Z,92.6
2017-06-05T02:52:54.482Z,92.4
2017-06-05T02:54:01.967Z,92.3
2017-06-05T02:55:09.451Z,92.2
2017-06-05T02:56:17.294Z,92
2017-06-05T02:57:24.465Z,92.5
2017-06-05T02:58:31.615Z,92.7
2017-06-05T02:59:38.786Z,92.3
2017-06-05T03:00:46.282Z,92.3
2017-06-05T03:01:53.780Z,92.5
2017-06-05T03:03:01.261Z,92.6
2017-06-05T03:04:08.975Z,92.7
2017-06-05T03:05:16.458Z,92.5
2017-06-05T03:06:23.933Z,92.3
2017-06-05T03:07:31.729Z,92.1
2017-06-05T03:08:39.209Z,92.1
2017-06-05T03:09:46.692Z,92.2
2017-06-05T03:10:54.180Z,92.5
2017-06-05T03:12:01.668Z,91.9
2017-06-05T03:13:09.114Z,91.9
2017-06-05T03:14:16.840Z,91.8
2017-06-05T03:15:24.026Z,92.1
2017-06-05T03:16:31.512Z,91.6
2017-06-05T03:17:38.994Z,91.7
2017-06-05T03:18:46.776Z,91.8
2017-06-05T03:19:54.257Z,92.2
2017-06-05T03:21:01.761Z,92.3
2017-06-05T03:22:08.913Z,92.4
2017-06-05T03:23:16.399Z,91.9
2017-06-05T03:24:24.180Z,92.4
2017-06-05T03:25:31.672Z,92
2017-06-05T03:26:39.153Z,92.4
2017-06-05T03:27:46.633Z,92.5
2017-06-05T03:28:54.115Z,92.6
2017-06-05T03:30:01.954Z,92.5
2017-06-05T03:31:09.439Z,92.6
2017-06-05T03:32:16.931Z,92.4
2017-06-05T03:33:24.109Z,92.2
2017-06-05T03:34:31.598Z,92.1
2017-06-05T03:35:39.424Z,92.5
2017-06-05T03:36:46.582Z,92.2
2017-06-05T03:37:54.058Z,92.2
2017-06-05T03:39:01.562Z,91.9
2017-06-05T03:40:08.723Z,91.9
2017-06-05T03:41:16.555Z,92
2017-06-05T03:42:24.060Z,92.1
2017-06-05T03:43:31.545Z,92
2017-06-05T03:44:39.027Z,92
2017-06-05T03:45:46.411Z,91.4
2017-06-05T03:46:54.242Z,92
2017-06-05T03:48:01.720Z,91.7
2017-06-05T03:49:09.193Z,91.3
2017-06-05T03:50:16.357Z,91.6
2017-06-05T03:51:23.510Z,91.3
2017-06-05T03:52:31.348Z,91.4
2017-06-05T03:53:38.833Z,91.7
2017-06-05T03:54:46.313Z,91.9
2017-06-05T03:55:53.128Z,92
2017-06-05T03:57:00.610Z,92.1
2017-06-05T03:58:08.473Z,92.2
2017-06-05T03:59:15.972Z,92.1
2017-06-05T04:00:23.452Z,92.1
2017-06-05T04:01:31.143Z,92
2017-06-05T04:02:38.337Z,92.3
2017-06-05T04:03:46.123Z,92.4
2017-06-05T04:04:53.602Z,92.2
2017-06-05T04:06:01.089Z,92.5
2017-06-05T04:07:08.246Z,92.3
2017-06-05T04:08:15.729Z,92
2017-06-05T04:09:23.234Z,91.8
2017-06-05T04:10:30.389Z,91.5
2017-06-05T04:11:37.870Z,91.2
2017-06-05T04:12:45.350Z,91.8
2017-06-05T04:13:52.832Z,91.6
2017-06-05T04:15:00.669Z,91.7
2017-06-05T04:16:08.152Z,91.8
2017-06-05T04:17:15.636Z,91.8
2017-06-05T04:18:23.124Z,91.4
2017-06-05T04:19:30.612Z,91.4
2017-06-05T04:20:38.123Z,91.8
2017-06-05T04:21:45.628Z,90.6
2017-06-05T04:22:53.113Z,91.4
2017-06-05T04:24:00.267Z,90.8
2017-06-05T04:25:07.454Z,90
2017-06-05T04:26:15.287Z,90.9
2017-06-05T04:27:22.768Z,91
2017-06-05T04:28:29.914Z,91.3
2017-06-05T04:29:37.072Z,91
2017-06-05T04:30:44.553Z,90.7
2017-06-05T04:31:52.395Z,91.9
2017-06-05T04:32:59.876Z,91.6
2017-06-05T04:34:07.355Z,91.8
2017-06-05T04:35:14.844Z,91.6
2017-06-05T04:36:22.328Z,91.4
2017-06-05T04:37:29.837Z,91.4
2017-06-05T04:38:37.318Z,91.6
2017-06-05T04:39:44.464Z,91.5
2017-06-05T04:40:51.955Z,91
2017-06-05T04:41:59.441Z,91.2
2017-06-05T04:43:07.272Z,91.1
2017-06-05T04:44:14.752Z,91
2017-06-05T04:45:22.236Z,91.1
2017-06-05T04:46:29.726Z,90.2
2017-06-05T04:47:37.209Z,90.4
2017-06-05T04:48:44.710Z,90.6
2017-06-05T04:49:52.195Z,90.9
2017-06-05T04:50:59.677Z,90
2017-06-05T04:52:07.157Z,90.2
2017-06-05T04:53:14.643Z,91.4
2017-06-05T04:54:22.475Z,91.1
2017-06-05T04:55:29.964Z,91.3
2017-06-05T04:56:37.449Z,90.9
2017-06-05T04:57:44.931Z,91.2
2017-06-05T04:58:52.415Z,91
2017-06-05T05:00:00.247Z,90.5
2017-06-05T05:01:07.988Z,90.5
2017-06-05T05:02:15.507Z,90.6
2017-06-05T05:03:22.341Z,90.6
2017-06-05T05:04:29.826Z,90.7
2017-06-05T05:05:37.659Z,90.9
2017-06-05T05:06:45.142Z,90.7
2017-06-05T05:07:52.623Z,90.4
2017-06-05T05:08:59.771Z,90.9
2017-06-05T05:10:07.283Z,90.8
2017-06-05T05:11:14.893Z,90.8
2017-06-05T05:12:21.714Z,91
2017-06-05T05:13:29.199Z,90.4
2017-06-05T05:14:36.686Z,90.4
2017-06-05T05:15:44.162Z,90.6
2017-06-05T05:16:51.940Z,90.8
2017-06-05T05:17:59.424Z,91.1
2017-06-05T05:19:06.900Z,90.8
2017-06-05T05:20:14.373Z,90.9
2017-06-05T05:21:21.525Z,90.8
2017-06-05T05:22:29.361Z,90.8
2017-06-05T05:23:36.844Z,90.7
2017-06-05T05:24:44.359Z,90.9
2017-06-05T05:25:51.846Z,90.5
2017-06-05T05:26:59.327Z,90.5
2017-06-05T05:28:07.199Z,90.7
2017-06-05T05:29:14.691Z,90.1
2017-06-05T05:30:22.173Z,90.5
2017-06-05T05:31:29.334Z,90.5
2017-06-05T05:32:36.815Z,90.6
2017-06-05T05:33:44.656Z,90.6
2017-06-05T05:34:52.150Z,90.5
2017-06-05T05:35:59.637Z,90.2
2017-06-05T05:37:06.807Z,89.5
2017-06-05T05:38:14.302Z,90.3
2017-06-05T05:39:21.480Z,90.4
2017-06-05T05:40:28.969Z,89.5
2017-06-05T05:41:36.447Z,90.1
2017-06-05T05:42:43.930Z,88.9
2017-06-05T05:43:51.425Z,89.2
2017-06-05T05:44:58.938Z,90.1
2017-06-05T05:46:06.420Z,88.2
2017-06-05T05:47:13.902Z,89.9
2017-06-05T05:48:21.381Z,86.9
2017-06-05T05:49:28.864Z,87
2017-06-05T05:50:36.699Z,87.3
2017-06-05T05:51:43.861Z,87.5
2017-06-05T05:52:51.341Z,87
2017-06-05T05:53:59.092Z,86.4
2017-06-05T05:55:06.250Z,86.6
2017-06-05T05:56:14.085Z,89
2017-06-05T05:57:21.601Z,87.4
2017-06-05T05:58:29.085Z,87.3
2017-06-05T05:59:36.565Z,87.8
2017-06-05T06:00:44.055Z,86.3
2017-06-05T06:01:51.923Z,86.8
2017-06-05T06:02:59.407Z,87
2017-06-05T06:04:06.560Z,87.1
2017-06-05T06:05:14.044Z,87.3
2017-06-05T06:06:21.540Z,86.6
2017-06-05T06:07:29.375Z,87.4
2017-06-05T06:08:36.540Z,86.6
2017-06-05T06:09:44.024Z,85.6
2017-06-05T06:10:51.538Z,86.4
2017-06-05T06:11:59.037Z,86.1
2017-06-05T06:13:06.821Z,86
2017-06-05T06:14:14.300Z,85.1
2017-06-05T06:15:21.788Z,86.6
2017-06-05T06:16:28.945Z,85.7
2017-06-05T06:17:36.427Z,86.2
2017-06-05T06:18:43.942Z,86.4
2017-06-05T06:19:51.436Z,86.8
2017-06-05T06:20:58.925Z,84.2
2017-06-05T06:22:06.411Z,83.7
2017-06-05T06:23:13.898Z,83.6
2017-06-05T06:24:21.735Z,84.7
2017-06-05T06:25:29.228Z,85.5
2017-06-05T06:26:36.717Z,84.2
2017-06-05T06:27:44.231Z,81.2
2017-06-05T06:28:51.723Z,81.7
2017-06-05T06:29:59.565Z,81.2
2017-06-05T06:31:07.054Z,83.8
2017-06-05T06:32:14.537Z,83.5
2017-06-05T06:33:22.027Z,84.4
2017-06-05T06:34:29.509Z,84.7
2017-06-05T06:35:37.346Z,84.3
2017-06-05T06:36:44.821Z,85.3
2017-06-05T06:37:52.708Z,83.4
2017-06-05T06:39:00.194Z,84.8
2017-06-05T06:40:07.682Z,83.5
2017-06-05T06:41:15.446Z,84.7
2017-06-05T06:42:22.928Z,84.1
2017-06-05T06:43:30.085Z,84
2017-06-05T06:44:37.566Z,83.3
2017-06-05T06:45:45.044Z,83.5
2017-06-05T06:46:52.889Z,80.7
2017-06-05T06:48:00.375Z,80.7
2017-06-05T06:49:07.861Z,81.5
2017-06-05T06:50:15.338Z,80.7
2017-06-05T06:51:22.819Z,82.2
2017-06-05T06:52:30.661Z,82.1
2017-06-05T06:53:38.148Z,82.5
2017-06-05T06:54:44.985Z,80.3
2017-06-05T06:55:52.474Z,80.7
2017-06-05T06:56:59.961Z,81.1
2017-06-05T06:58:07.803Z,81.5
2017-06-05T06:59:14.963Z,81.5
2017-06-05T07:00:22.448Z,82
2017-06-05T07:01:29.609Z,78.7
2017-06-05T07:02:37.093Z,81.2
2017-06-05T07:03:44.940Z,81.6
2017-06-05T07:04:52.445Z,79.2
2017-06-05T07:05:59.603Z,80.1
2017-06-05T07:07:07.090Z,80
2017-06-05T07:08:14.573Z,82.1
2017-06-05T07:09:22.412Z,79.6
2017-06-05T07:10:29.898Z,79.9
2017-06-05T07:11:37.054Z,80.7
2017-06-05T07:12:44.205Z,81.3
2017-06-05T07:13:51.691Z,82.2
2017-06-05T07:14:59.538Z,78.6
2017-06-05T07:16:06.689Z,80.2
2017-06-05T07:17:14.180Z,78.4
2017-06-05T07:18:21.345Z,78.1
2017-06-05T07:19:28.836Z,79.1
2017-06-05T07:20:36.670Z,78.4
2017-06-05T07:21:44.159Z,78.9
2017-06-05T07:22:51.646Z,81.2
2017-06-05T07:23:59.134Z,81.1
2017-06-05T07:25:06.296Z,79.7
2017-06-05T07:26:14.130Z,77.7
2017-06-05T07:27:21.623Z,80.6
2017-06-05T07:28:29.117Z,77.2
2017-06-05T07:29:36.603Z,80
2017-06-05T07:30:44.102Z,76.1
2017-06-05T07:31:51.935Z,76
2017-06-05T07:32:59.423Z,76.5
2017-06-05T07:34:06.907Z,78.9
2017-06-05T07:35:14.414Z,75.7
2017-06-05T07:36:21.905Z,74.7
2017-06-05T07:37:29.439Z,78.4
2017-06-05T07:38:36.931Z,77
2017-06-05T07:39:44.418Z,75.3
2017-06-05T07:40:51.904Z,77.1
2017-06-05T07:43:21.500Z,76.5
2017-06-05T07:44:29.037Z,76.9
2017-06-05T07:45:36.527Z,77.6
2017-06-05T07:46:44.010Z,76.9
2017-06-05T07:47:51.498Z,76.2
2017-06-05T07:48:59.341Z,75
2017-06-05T07:50:06.504Z,74.5
2017-06-05T07:51:14.001Z,72.9
2017-06-05T07:52:21.165Z,73
2017-06-05T07:53:28.664Z,73.5
2017-06-05T07:54:36.502Z,76.9
2017-06-05T07:55:43.661Z,71.8
2017-06-05T07:56:51.157Z,75.3
2017-06-05T07:57:58.647Z,75.2
2017-06-05T07:59:06.152Z,74.7
2017-06-05T08:00:13.994Z,75.4
2017-06-05T08:01:21.490Z,74.5
2017-06-05T08:02:28.980Z,75.1
2017-06-05T08:03:36.477Z,76.3
2017-06-05T08:04:43.968Z,76.3
2017-06-05T08:05:51.812Z,75.9
2017-06-05T08:06:59.298Z,75.4
2017-06-05T08:08:06.450Z,73
2017-06-05T08:09:13.937Z,74.1
2017-06-05T08:10:21.452Z,75.1
2017-06-05T08:11:29.294Z,74.3
2017-06-05T08:12:36.458Z,74
2017-06-05T08:13:43.623Z,75.3
2017-06-05T08:14:51.111Z,71.6
2017-06-05T08:15:58.625Z,73.4
2017-06-05T08:17:06.460Z,73.2
2017-06-05T08:18:13.953Z,75.3
2017-06-05T08:19:21.443Z,73.1
2017-06-05T08:20:28.600Z,72.8
2017-06-05T08:21:35.765Z,74.4
2017-06-05T08:22:43.605Z,73.4
2017-06-05T08:23:51.124Z,73.3
2017-06-05T08:24:58.638Z,74.3
2017-06-05T08:27:13.257Z,72.5
2017-06-05T08:28:21.106Z,70.5
2017-06-05T08:29:28.596Z,71.3
2017-06-05T08:30:36.092Z,71.8
2017-06-05T08:31:43.584Z,75.8
2017-06-05T08:32:51.071Z,73.4
2017-06-05T08:33:59.140Z,75.4
2017-06-05T08:35:06.631Z,74.4
2017-06-05T08:36:14.127Z,74.6
2017-06-05T08:37:21.633Z,71.8
2017-06-05T08:38:29.130Z,71.9
2017-06-05T08:39:36.594Z,72.7
2017-06-05T08:40:44.077Z,72.1
2017-06-05T08:41:51.572Z,72.4
2017-06-05T08:42:59.060Z,73.5
2017-06-05T08:44:06.550Z,74.7
2017-06-05T08:45:14.337Z,72.3
2017-06-05T08:46:21.822Z,70.3
2017-06-05T08:47:29.314Z,70.7
2017-06-05T08:48:36.807Z,70.4
2017-06-05T08:49:44.295Z,69.1
2017-06-05T08:50:52.132Z,72
2017-06-05T08:51:59.627Z,75.2
2017-06-05T08:53:07.135Z,67.7
2017-06-05T08:54:14.625Z,68.7
2017-06-05T08:55:21.782Z,70.6
2017-06-05T08:56:29.583Z,69.6
2017-06-05T08:57:37.080Z,68.8
2017-06-05T08:58:44.571Z,68.1
2017-06-05T08:59:52.054Z,70.1
2017-06-05T09:00:59.540Z,69.5
2017-06-05T09:02:06.666Z,72.1
2017-06-05T09:03:14.153Z,72.3
2017-06-05T09:04:21.646Z,69.8
2017-06-05T09:05:29.132Z,69.2
2017-06-05T09:06:36.634Z,72.4
2017-06-05T09:07:44.476Z,70.2
2017-06-05T09:08:51.311Z,70
2017-06-05T09:09:58.802Z,68.7
2017-06-05T09:11:06.290Z,71.2
2017-06-05T09:12:13.784Z,72.4
2017-06-05T09:13:21.638Z,72.7
2017-06-05T09:14:29.143Z,70.3
2017-06-05T09:15:36.836Z,69.1
2017-06-05T09:16:44.034Z,71.9
2017-06-05T09:17:51.524Z,70.4
2017-06-05T09:18:59.025Z,69.7
2017-06-05T09:20:06.533Z,69.3
2017-06-05T09:21:14.017Z,72.6
2017-06-05T09:22:21.182Z,72.8
2017-06-05T09:23:28.029Z,71.2
2017-06-05T09:24:35.864Z,73
2017-06-05T09:25:43.356Z,73.1
2017-06-05T09:26:50.840Z,71.4
2017-06-05T09:27:58.335Z,72.2
2017-06-05T09:29:04.844Z,71.6
2017-06-05T09:30:12.685Z,70.1
2017-06-05T09:31:20.181Z,69.9
2017-06-05T09:32:27.673Z,69
2017-06-05T09:33:35.159Z,71.9
2017-06-05T09:34:42.648Z,72.1
2017-06-05T09:35:50.153Z,69.3
2017-06-05T09:36:56.999Z,70.1
2017-06-05T09:38:04.487Z,71.4
2017-06-05T09:39:11.983Z,70.2
2017-06-05T09:40:19.481Z,69.2
2017-06-05T09:41:27.323Z,71.3
2017-06-05T09:42:34.489Z,72.4
2017-06-05T09:43:41.986Z,69.1
2017-06-05T09:44:49.478Z,70.3
2017-06-05T09:45:56.993Z,70.9
2017-06-05T09:47:04.510Z,72.1
2017-06-05T09:48:12.607Z,71.6
2017-06-05T09:49:20.022Z,71.4
2017-06-05T09:50:27.184Z,71.4
2017-06-05T09:51:34.674Z,71.2
2017-06-05T09:52:42.179Z,72.8
2017-06-05T09:53:49.340Z,74.6
2017-06-05T09:54:56.829Z,71.7
2017-06-05T09:56:04.321Z,71
2017-06-05T09:57:11.830Z,72.1
2017-06-05T09:58:19.662Z,72.2
2017-06-05T09:59:27.156Z,72.3
2017-06-05T10:00:34.329Z,72
2017-06-05T10:01:41.824Z,71.1
2017-06-05T10:02:49.318Z,72
2017-06-05T10:03:57.163Z,73.2
2017-06-05T10:05:04.654Z,72.3
2017-06-05T10:06:12.143Z,72.4
2017-06-05T10:07:19.639Z,72.7
2017-06-05T10:08:27.124Z,73.3
2017-06-05T10:09:34.962Z,71.3
2017-06-05T10:10:42.875Z,70.9
2017-06-05T10:11:50.384Z,71.6
2017-06-05T10:12:57.865Z,72.3
2017-06-05T10:14:05.029Z,73
2017-06-05T10:15:12.535Z,73.2
2017-06-05T10:16:20.032Z,73.4
2017-06-05T10:17:27.530Z,73.8
2017-06-05T10:18:35.013Z,72.9
2017-06-05T10:19:42.502Z,73.9
2017-06-05T10:20:50.286Z,76.2
2017-06-05T10:21:57.771Z,76.7
2017-06-05T10:23:05.252Z,77.2
2017-06-05T10:24:12.745Z,78.2
2017-06-05T10:25:20.232Z,78.5
2017-06-05T10:26:28.022Z,77.5
2017-06-05T10:27:35.505Z,77.9
2017-06-05T10:28:42.988Z,76.8
2017-06-05T10:29:50.474Z,77.2
2017-06-05T10:30:57.966Z,76.4
2017-06-05T10:32:05.759Z,76.4
2017-06-05T10:33:13.245Z,76.4
2017-06-05T10:34:20.398Z,75.4
2017-06-05T10:35:27.560Z,78.1
2017-06-05T10:36:34.718Z,79.5
2017-06-05T10:37:42.528Z,77.6
2017-06-05T10:38:50.021Z,78.1
2017-06-05T10:39:57.512Z,75
2017-06-05T10:41:04.999Z,73.4
2017-06-05T10:42:12.485Z,75
2017-06-05T10:43:20.278Z,76.4
2017-06-05T10:44:27.777Z,74.5
2017-06-05T10:45:35.263Z,76.7
2017-06-05T10:46:42.755Z,78.8
2017-06-05T10:47:50.245Z,79
2017-06-05T10:48:58.028Z,75.1
2017-06-05T10:50:05.517Z,78.4
2017-06-05T10:51:12.670Z,76.9
2017-06-05T10:52:20.167Z,77.1
2017-06-05T10:53:27.651Z,78.1
2017-06-05T10:54:35.433Z,78.9
2017-06-05T10:55:42.920Z,79.1
2017-06-05T10:56:50.412Z,80.2
2017-06-05T10:57:57.917Z,79.6
2017-06-05T10:59:05.399Z,79.5
2017-06-05T11:00:13.179Z,79.8
2017-06-05T11:01:20.673Z,82.9
2017-06-05T11:02:28.163Z,81.1
2017-06-05T11:03:35.649Z,82.4
2017-06-05T11:04:43.127Z,83.4
2017-06-05T11:05:50.911Z,83.6
2017-06-05T11:06:58.395Z,82.7
2017-06-05T11:08:05.881Z,81.9
2017-06-05T11:09:13.369Z,81.5
2017-06-05T11:10:20.859Z,81.8
2017-06-05T11:11:28.644Z,81.7
2017-06-05T11:12:36.136Z,83.2
2017-06-05T11:13:43.636Z,84
2017-06-05T11:14:51.121Z,84.9
2017-06-05T11:15:58.609Z,84.1
2017-06-05T11:17:06.397Z,82.8
2017-06-05T11:18:13.552Z,82.2
2017-06-05T11:19:21.043Z,84.4
2017-06-05T11:20:28.529Z,84.3
2017-06-05T11:21:36.014Z,85.1
2017-06-05T11:22:43.476Z,84.1
2017-06-05T11:23:50.970Z,83.9
2017-06-05T11:24:58.461Z,85.6
2017-06-05T11:26:05.948Z,85.9
2017-06-05T11:27:13.448Z,85.3
2017-06-05T11:28:21.246Z,85.3
2017-06-05T11:29:28.736Z,85.4
2017-06-05T11:30:36.226Z,86.3
2017-06-05T11:31:43.712Z,87
2017-06-05T11:32:51.196Z,85.1
2017-06-05T11:33:58.986Z,86.5
2017-06-05T11:35:06.466Z,85.9
2017-06-05T11:36:13.949Z,85.8
2017-06-05T11:37:21.099Z,86.4
2017-06-05T11:38:28.596Z,87
2017-06-05T11:39:36.392Z,87.2
2017-06-05T11:40:43.557Z,86.8
2017-06-05T11:41:51.037Z,86.6
2017-06-05T11:42:58.512Z,85.6
2017-06-05T11:44:06.004Z,85.3
2017-06-05T11:45:13.787Z,87.5
2017-06-05T11:46:21.272Z,86.7
2017-06-05T11:47:28.759Z,86.2
2017-06-05T11:48:36.241Z,86.5
2017-06-05T11:49:43.734Z,86
2017-06-05T11:50:51.521Z,87.3
2017-06-05T11:51:59.008Z,85.8
2017-06-05T11:53:06.500Z,85.6
2017-06-05T11:54:13.982Z,86.6
2017-06-05T11:55:21.471Z,84
2017-06-05T11:56:29.271Z,84.4
2017-06-05T11:57:36.752Z,84.4
2017-06-05T11:58:44.233Z,83.1
2017-06-05T11:59:51.717Z,84.4
2017-06-05T12:00:59.200Z,84.4
2017-06-05T12:02:06.983Z,84.2
2017-06-05T12:03:14.470Z,82.5
2017-06-05T12:04:21.628Z,83.8
2017-06-05T12:05:29.115Z,83.3
2017-06-05T12:06:36.268Z,84.4
2017-06-05T12:07:44.060Z,85.3
2017-06-05T12:08:51.545Z,85.4
2017-06-05T12:09:58.700Z,86.1
2017-06-05T12:11:05.880Z,83.7
2017-06-05T12:12:13.371Z,84.5
2017-06-05T12:13:21.166Z,84.6
2017-06-05T12:14:28.321Z,84.5
2017-06-05T12:15:35.801Z,85.6
2017-06-05T12:16:43.287Z,84.6
2017-06-05T12:17:50.772Z,83.6
2017-06-05T12:18:58.553Z,85.4
2017-06-05T12:20:06.034Z,84.7
2017-06-05T12:21:13.515Z,86
2017-06-05T12:22:20.995Z,84.9
2017-06-05T12:23:28.157Z,84.5
2017-06-05T12:24:35.952Z,83.1
2017-06-05T12:25:43.438Z,85.6
2017-06-05T12:26:50.934Z,85.4
2017-06-05T12:27:58.423Z,85.7
2017-06-05T12:29:05.909Z,84.3
2017-06-05T12:30:13.698Z,84.7
2017-06-05T12:31:21.197Z,84.7
2017-06-05T12:32:28.689Z,84.8
2017-06-05T12:33:36.177Z,84.8
2017-06-05T12:34:43.663Z,84.1
2017-06-05T12:35:51.445Z,86.1
2017-06-05T12:36:58.598Z,86.2
2017-06-05T12:38:05.751Z,87.4
2017-06-05T12:39:12.905Z,89.1
2017-06-05T12:40:20.385Z,86.6
2017-06-05T12:41:28.176Z,86.7
2017-06-05T12:42:35.659Z,88.3
2017-06-05T12:43:43.145Z,87.3
2017-06-05T12:44:50.631Z,88
2017-06-05T12:45:58.110Z,86.8
2017-06-05T12:47:05.896Z,89
2017-06-05T12:48:13.379Z,87.7
2017-06-05T12:49:20.866Z,89.2
2017-06-05T12:50:28.354Z,89.1
2017-06-05T12:51:35.870Z,86.5
2017-06-05T12:52:43.648Z,87.2
2017-06-05T12:53:51.135Z,89.4
2017-06-05T12:54:58.290Z,86
2017-06-05T12:56:05.776Z,87.3
2017-06-05T12:57:13.270Z,89.1
2017-06-05T12:58:20.744Z,84.5
2017-06-05T12:59:28.266Z,85.9
2017-06-05T13:00:35.425Z,87.8
2017-06-05T13:01:42.906Z,83.2
2017-06-05T13:02:50.062Z,83.3
2017-06-05T13:03:57.841Z,86.7
2017-06-05T13:05:05.342Z,87.6
2017-06-05T13:06:12.494Z,82.8
2017-06-05T13:07:19.981Z,83
2017-06-05T13:08:27.470Z,84
2017-06-05T13:09:35.274Z,84.7
2017-06-05T13:10:42.426Z,84.7
2017-06-05T13:11:49.910Z,86
2017-06-05T13:12:57.403Z,84.7
2017-06-05T13:14:04.563Z,84.8
2017-06-05T13:15:12.352Z,84.1
2017-06-05T13:16:19.859Z,81.8
2017-06-05T13:17:27.017Z,83
2017-06-05T13:18:34.922Z,83.3
2017-06-05T13:19:42.437Z,83.8
2017-06-05T13:20:50.217Z,84.9
2017-06-05T13:21:57.704Z,82
2017-06-05T13:23:05.187Z,81.7
2017-06-05T13:24:12.350Z,82.4
2017-06-05T13:25:19.518Z,83.9
2017-06-05T13:26:26.975Z,82.5
2017-06-05T13:27:34.462Z,83.8
2017-06-05T13:28:41.954Z,83.3
2017-06-05T13:29:49.439Z,83.6
2017-06-05T13:30:56.928Z,82.9
2017-06-05T13:32:04.391Z,85.6
2017-06-05T13:33:11.878Z,85.4
2017-06-05T13:34:19.360Z,85.1
2017-06-05T13:35:26.844Z,85.2
2017-06-05T13:36:34.339Z,85.3
2017-06-05T13:37:42.120Z,86.4
2017-06-05T13:38:49.275Z,85.6
2017-06-05T13:39:56.764Z,85.3
2017-06-05T13:41:03.927Z,84.9
2017-06-05T13:42:11.412Z,83.2
2017-06-05T13:43:19.204Z,85
2017-06-05T13:44:26.696Z,86.1
2017-06-05T13:45:34.182Z,83.3
2017-06-05T13:46:41.692Z,83.8
2017-06-05T13:47:48.854Z,84.8
2017-06-05T13:48:56.638Z,83.3
2017-06-05T13:50:03.788Z,85.4
2017-06-05T13:51:10.947Z,84.7
2017-06-05T13:52:18.438Z,84.8
2017-06-05T13:53:25.601Z,85
2017-06-05T13:54:33.056Z,85
2017-06-05T13:55:40.543Z,86.1
2017-06-05T13:56:48.028Z,85.1
2017-06-05T13:57:55.511Z,86.4
2017-06-05T13:59:03.013Z,85.5
2017-06-05T14:00:10.796Z,85.5
2017-06-05T14:01:18.281Z,83
2017-06-05T14:02:25.764Z,83.9
2017-06-05T14:03:33.249Z,82.5
2017-06-05T14:04:40.428Z,81.9
2017-06-05T14:05:47.885Z,82.9
2017-06-05T14:06:55.364Z,83.8
2017-06-05T14:08:02.877Z,83.8
2017-06-05T14:09:10.363Z,84.2
2017-06-05T14:10:17.851Z,79.1
2017-06-05T14:11:25.653Z,82.5
2017-06-05T14:12:33.139Z,80.3
2017-06-05T14:13:40.634Z,81.5
2017-06-05T14:14:48.127Z,84
2017-06-05T14:15:55.614Z,84.2
2017-06-05T14:17:03.112Z,80.4
2017-06-05T14:18:10.273Z,80
2017-06-05T14:19:17.755Z,82.5
2017-06-05T14:20:25.482Z,83.2
2017-06-05T14:21:33.698Z,81.5
2017-06-05T14:22:41.716Z,82.7
2017-06-05T14:23:49.482Z,82.1
2017-06-05T14:24:57.242Z,81.7
2017-06-05T14:26:04.730Z,82.3
2017-06-05T14:27:12.219Z,83.5
2017-06-05T14:28:20.060Z,83
2017-06-05T14:29:27.552Z,82.1
2017-06-05T14:30:35.313Z,82.2
2017-06-05T14:31:42.802Z,83
2017-06-05T14:32:49.967Z,82.2
2017-06-05T14:33:57.813Z,83.1
2017-06-05T14:35:05.299Z,84
2017-06-05T14:36:12.783Z,83.5
2017-06-05T14:37:19.944Z,83.2
2017-06-05T14:38:27.464Z,83.7
2017-06-05T14:39:35.300Z,83.6
2017-06-05T14:40:42.793Z,83.2
2017-06-05T14:41:49.984Z,85
2017-06-05T14:42:57.477Z,83.3
2017-06-05T14:44:04.965Z,85.6
2017-06-05T14:46:34.826Z,86.3
2017-06-05T14:47:42.373Z,86.1
2017-06-05T14:48:49.521Z,86.3
2017-06-05T14:49:57.018Z,85.7
2017-06-05T14:51:04.891Z,87
2017-06-05T14:52:12.378Z,85.8
2017-06-05T14:53:19.869Z,83.5
2017-06-05T14:54:27.358Z,82.7
2017-06-05T14:55:34.846Z,82.6
2017-06-05T14:56:42.689Z,82.4
2017-06-05T14:57:50.169Z,84.7
2017-06-05T14:58:57.681Z,87.8
2017-06-05T15:00:05.170Z,88.2
2017-06-05T15:01:12.682Z,88
2017-06-05T15:02:20.514Z,87.6
2017-06-05T15:03:28.017Z,88
2017-06-05T15:04:35.501Z,87.6
2017-06-05T15:05:42.990Z,88
2017-06-05T15:06:50.475Z,87.9
2017-06-05T15:07:58.355Z,88.4
2017-06-05T15:09:05.847Z,89